Time;durP1;ratioP1;P1;durP2;ratioP2;P2;SDS_P1;SDS_P2;PMS_P1;PMS_P2;Temp;Humidity;BMP_temperature;BMP_pressure;BME280_temperature;BME280_humidity;BME280_pressure;Samples;Min_cycle;Max_cycle;Signal;HPM_P1;HPM_P2
2022/09/29 00:00:21;;;;;;;1.70;1.60;;;;;;;;;;4992331;28;20479;-74
2022/09/29 00:02:48;;;;;;;2.10;1.53;;;;;;;;;;4965605;28;20451;-74
2022/09/29 00:05:16;;;;;;;2.77;1.60;;;;;;;;;;4992203;28;20451;-74
2022/09/29 00:07:43;;;;;;;2.57;1.53;;;;;;;;;;4991899;28;20785;-74
2022/09/29 00:10:11;;;;;;;3.50;2.07;;;;;;;;;;4991596;28;20470;-74
2022/09/29 00:12:38;;;;;;;2.33;1.53;;;;;;;;;;4992062;28;20460;-74
2022/09/29 00:15:06;;;;;;;3.93;1.63;;;;;;;;;;4992679;28;20447;-74
2022/09/29 00:17:33;;;;;;;2.27;1.80;;;;;;;;;;4994681;28;20472;-74
2022/09/29 00:20:00;;;;;;;3.43;2.57;;;;;;;;;;4984156;28;20531;-74
2022/09/29 00:22:27;;;;;;;2.40;1.40;;;;;;;;;;4989770;28;20460;-74
2022/09/29 00:24:54;;;;;;;1.90;1.80;;;;;;;;;;5001384;28;20483;-74
2022/09/29 00:27:23;;;;;;;2.80;1.70;;;;;;;;;;4994305;28;20457;-74
2022/09/29 00:29:50;;;;;;;2.57;1.50;;;;;;;;;;4996566;28;20628;-73
2022/09/29 00:32:17;;;;;;;2.03;1.57;;;;;;;;;;5003206;28;20458;-75
2022/09/29 00:34:44;;;;;;;2.50;1.40;;;;;;;;;;4996268;28;20452;-73
2022/09/29 00:37:12;;;;;;;2.73;1.77;;;;;;;;;;4992429;28;20451;-73
2022/09/29 00:39:39;;;;;;;1.50;1.40;;;;;;;;;;4979059;28;20491;-74
2022/09/29 00:42:06;;;;;;;2.33;2.07;;;;;;;;;;4994789;28;20547;-74
2022/09/29 00:44:58;;;;;;;2.33;1.70;;;;;;;;;;4998154;28;20934;-74
2022/09/29 00:47:25;;;;;;;6.43;1.67;;;;;;;;;;4997937;28;20447;-74
2022/09/29 00:49:56;;;;;;;2.17;1.93;;;;;;;;;;4992668;28;20485;-74
2022/09/29 00:52:25;;;;;;;3.77;1.97;;;;;;;;;;4998209;28;20792;-74
2022/09/29 00:54:54;;;;;;;3.60;1.43;;;;;;;;;;4997528;28;20446;-73
2022/09/29 00:57:22;;;;;;;6.37;1.60;;;;;;;;;;4997338;28;20455;-74
2022/09/29 00:59:51;;;;;;;2.20;1.80;;;;;;;;;;4997386;28;20491;-74
2022/09/29 01:02:20;;;;;;;3.43;1.77;;;;;;;;;;4998133;28;20455;-74
2022/09/29 01:04:48;;;;;;;3.27;2.37;;;;;;;;;;4997168;28;20459;-73
2022/09/29 01:07:15;;;;;;;3.67;1.93;;;;;;;;;;4997423;28;20476;-74
2022/09/29 01:09:43;;;;;;;3.00;1.93;;;;;;;;;;4997554;28;20449;-74
2022/09/29 01:12:11;;;;;;;2.33;1.77;;;;;;;;;;4996973;28;20935;-74
2022/09/29 01:14:38;;;;;;;3.23;1.63;;;;;;;;;;4997398;28;20457;-74
2022/09/29 01:17:06;;;;;;;3.87;1.53;;;;;;;;;;4996567;28;20446;-74
2022/09/29 01:19:39;;;;;;;2.10;1.60;;;;;;;;;;4987930;28;20504;-74
2022/09/29 01:22:11;;;;;;;5.23;3.23;;;;;;;;;;4983349;28;20441;-73
2022/09/29 01:25:02;;;;;;;3.13;1.90;;;;;;;;;;4997357;28;20441;-73
2022/09/29 01:27:47;;;;;;;1.60;1.37;;;;;;;;;;4988866;28;21003;-74
2022/09/29 01:30:16;;;;;;;3.27;1.90;;;;;;;;;;4996523;28;20466;-73
2022/09/29 01:32:53;;;;;;;1.90;1.70;;;;;;;;;;4997395;28;20938;-74
2022/09/29 01:35:23;;;;;;;2.17;1.97;;;;;;;;;;4997641;28;20448;-74
2022/09/29 01:37:55;;;;;;;3.47;1.70;;;;;;;;;;4996924;28;20801;-73
2022/09/29 01:40:26;;;;;;;2.07;1.67;;;;;;;;;;4997846;28;20476;-73
2022/09/29 01:42:58;;;;;;;3.40;2.00;;;;;;;;;;4997098;28;20524;-72
2022/09/29 01:45:27;;;;;;;2.87;2.30;;;;;;;;;;4997973;28;20448;-74
2022/09/29 01:47:59;;;;;;;2.77;2.20;;;;;;;;;;4997095;28;20453;-73
2022/09/29 01:50:29;;;;;;;3.50;2.53;;;;;;;;;;4993163;28;20463;-73
2022/09/29 01:52:59;;;;;;;1.60;1.43;;;;;;;;;;4995022;28;20456;-73
2022/09/29 01:55:29;;;;;;;4.43;1.90;;;;;;;;;;4994160;28;20940;-73
2022/09/29 01:57:58;;;;;;;4.80;1.90;;;;;;;;;;4968275;28;20932;-73
2022/09/29 02:00:30;;;;;;;2.57;1.70;;;;;;;;;;4994459;28;20484;-73
2022/09/29 02:03:02;;;;;;;3.00;1.70;;;;;;;;;;4994031;28;20456;-74
2022/09/29 02:05:33;;;;;;;4.07;1.47;;;;;;;;;;4994115;28;20456;-74
2022/09/29 02:08:03;;;;;;;2.43;1.43;;;;;;;;;;4994032;28;20454;-73
2022/09/29 02:10:33;;;;;;;1.43;1.30;;;;;;;;;;4994054;28;20460;-73
2022/09/29 02:13:01;;;;;;;1.73;1.47;;;;;;;;;;4993484;28;20445;-73
2022/09/29 02:15:30;;;;;;;4.00;2.00;;;;;;;;;;4993838;28;20476;-74
2022/09/29 02:18:03;;;;;;;3.00;1.90;;;;;;;;;;4992778;28;20544;-74
2022/09/29 02:20:30;;;;;;;2.00;1.47;;;;;;;;;;4981680;28;20515;-74
2022/09/29 02:22:57;;;;;;;3.03;1.37;;;;;;;;;;4992789;28;20929;-73
2022/09/29 02:25:25;;;;;;;1.27;1.13;;;;;;;;;;4993489;28;20450;-74
2022/09/29 02:27:52;;;;;;;2.50;1.60;;;;;;;;;;4981350;28;20462;-73
2022/09/29 02:30:20;;;;;;;3.83;2.10;;;;;;;;;;4993695;28;20788;-74
2022/09/29 02:32:47;;;;;;;4.07;2.13;;;;;;;;;;4992957;28;20797;-73
2022/09/29 02:35:16;;;;;;;2.73;1.67;;;;;;;;;;4980896;28;20438;-73
2022/09/29 02:37:54;;;;;;;3.90;1.57;;;;;;;;;;4993036;28;20472;-73
2022/09/29 02:40:32;;;;;;;3.77;1.50;;;;;;;;;;4993301;28;20592;-73
2022/09/29 02:43:18;;;;;;;2.37;1.80;;;;;;;;;;4992943;28;20440;-73
2022/09/29 02:45:53;;;;;;;3.57;1.57;;;;;;;;;;4992767;28;20783;-73
2022/09/29 02:48:31;;;;;;;2.20;2.00;;;;;;;;;;4993568;28;20453;-73
2022/09/29 02:51:06;;;;;;;2.50;1.53;;;;;;;;;;4985859;28;20468;-73
2022/09/29 02:53:37;;;;;;;1.57;1.40;;;;;;;;;;4993445;28;20479;-74
2022/09/29 02:56:08;;;;;;;1.60;1.50;;;;;;;;;;4991597;28;20975;-73
2022/09/29 02:58:39;;;;;;;2.43;1.27;;;;;;;;;;4993172;28;20460;-73
2022/09/29 03:01:07;;;;;;;1.40;1.30;;;;;;;;;;4992296;28;20485;-72
2022/09/29 03:03:34;;;;;;;2.47;1.87;;;;;;;;;;4993138;28;20449;-73
2022/09/29 03:06:02;;;;;;;3.20;1.50;;;;;;;;;;4991421;28;20964;-73
2022/09/29 03:08:31;;;;;;;2.80;1.60;;;;;;;;;;4992765;28;20453;-73
2022/09/29 03:10:58;;;;;;;3.17;1.70;;;;;;;;;;4969203;28;20541;-73
2022/09/29 03:13:25;;;;;;;2.40;1.60;;;;;;;;;;4995967;28;20449;-73
2022/09/29 03:15:52;;;;;;;3.30;1.70;;;;;;;;;;4991645;28;20464;-73
2022/09/29 03:18:21;;;;;;;2.53;1.97;;;;;;;;;;4996349;28;20450;-73
2022/09/29 03:20:48;;;;;;;2.67;2.00;;;;;;;;;;4978716;28;20522;-73
2022/09/29 03:23:17;;;;;;;2.10;1.67;;;;;;;;;;4993172;28;20459;-73
2022/09/29 03:25:44;;;;;;;3.37;1.60;;;;;;;;;;4992671;28;20446;-73
2022/09/29 03:28:11;;;;;;;3.43;2.13;;;;;;;;;;4979097;28;20458;-73
2022/09/29 03:30:38;;;;;;;2.20;1.50;;;;;;;;;;4982521;28;20453;-73
2022/09/29 03:33:05;;;;;;;2.37;1.53;;;;;;;;;;4991795;28;20449;-73
2022/09/29 03:35:32;;;;;;;3.50;1.70;;;;;;;;;;4992366;28;20814;-73
2022/09/29 03:38:00;;;;;;;1.63;1.23;;;;;;;;;;4991958;28;20452;-72
2022/09/29 03:40:28;;;;;;;1.60;1.30;;;;;;;;;;4992500;28;20520;-74
2022/09/29 03:42:55;;;;;;;3.27;1.80;;;;;;;;;;4991694;28;20467;-74
2022/09/29 03:45:23;;;;;;;2.87;1.30;;;;;;;;;;4992577;28;20459;-73
2022/09/29 03:47:50;;;;;;;2.20;1.90;;;;;;;;;;4991773;28;20457;-73
2022/09/29 03:50:17;;;;;;;2.03;1.47;;;;;;;;;;4986900;28;20484;-73
2022/09/29 03:52:44;;;;;;;2.07;1.17;;;;;;;;;;4992153;28;20460;-73
2022/09/29 03:55:11;;;;;;;2.43;1.30;;;;;;;;;;4991731;28;20537;-74
2022/09/29 03:57:40;;;;;;;2.37;1.70;;;;;;;;;;4991956;28;20459;-73
2022/09/29 04:00:07;;;;;;;2.73;1.80;;;;;;;;;;4991267;28;20510;-74
2022/09/29 04:02:35;;;;;;;2.90;1.93;;;;;;;;;;4991876;28;20460;-74
2022/09/29 04:05:02;;;;;;;6.63;1.73;;;;;;;;;;4990952;28;20479;-75
2022/09/29 04:07:30;;;;;;;3.43;1.60;;;;;;;;;;4991237;28;20448;-75
2022/09/29 04:09:57;;;;;;;2.47;1.73;;;;;;;;;;4991531;28;20494;-74
2022/09/29 04:12:25;;;;;;;2.23;1.40;;;;;;;;;;4992060;28;20573;-74
2022/09/29 04:14:54;;;;;;;2.43;1.70;;;;;;;;;;4991443;28;20460;-74
2022/09/29 04:17:21;;;;;;;2.77;2.33;;;;;;;;;;4990455;28;20452;-74
2022/09/29 04:19:48;;;;;;;2.03;1.70;;;;;;;;;;4979354;28;20979;-74
2022/09/29 04:22:17;;;;;;;1.93;1.40;;;;;;;;;;4979451;28;20448;-74
2022/09/29 04:24:44;;;;;;;1.97;1.53;;;;;;;;;;4991235;28;21010;-74
2022/09/29 04:27:11;;;;;;;2.93;1.60;;;;;;;;;;4985178;28;20973;-74
2022/09/29 04:29:38;;;;;;;2.77;1.77;;;;;;;;;;4986269;28;20459;-74
2022/09/29 04:32:07;;;;;;;4.13;1.70;;;;;;;;;;4982716;28;20955;-74
2022/09/29 04:34:34;;;;;;;2.37;1.73;;;;;;;;;;4986641;28;20471;-74
2022/09/29 04:37:01;;;;;;;3.70;2.80;;;;;;;;;;4990401;28;20459;-72
2022/09/29 04:39:28;;;;;;;2.50;1.70;;;;;;;;;;4991280;28;20465;-73
2022/09/29 04:41:56;;;;;;;2.47;1.40;;;;;;;;;;4990408;28;20487;-73
2022/09/29 04:44:23;;;;;;;3.23;2.27;;;;;;;;;;4991699;28;20448;-73
2022/09/29 04:46:51;;;;;;;1.90;1.60;;;;;;;;;;4990382;28;20520;-72
2022/09/29 04:49:19;;;;;;;2.23;1.60;;;;;;;;;;4986210;28;20959;-74
2022/09/29 04:51:46;;;;;;;2.20;2.00;;;;;;;;;;4990951;28;20463;-74
2022/09/29 04:54:14;;;;;;;3.43;2.53;;;;;;;;;;4991501;28;20862;-74
2022/09/29 04:56:41;;;;;;;1.90;1.53;;;;;;;;;;4991222;28;20459;-75
2022/09/29 04:59:08;;;;;;;2.50;1.60;;;;;;;;;;4991217;28;20451;-74
2022/09/29 05:01:35;;;;;;;1.50;1.27;;;;;;;;;;4991630;28;20483;-75
2022/09/29 05:04:02;;;;;;;1.53;1.37;;;;;;;;;;4991153;28;20458;-74
2022/09/29 05:06:31;;;;;;;2.50;1.67;;;;;;;;;;4991157;28;20458;-74
2022/09/29 05:08:58;;;;;;;5.30;1.83;;;;;;;;;;4991148;28;20458;-74
2022/09/29 05:11:25;;;;;;;2.57;1.60;;;;;;;;;;4991664;28;20456;-75
2022/09/29 05:13:52;;;;;;;3.47;1.77;;;;;;;;;;4991146;28;20455;-75
2022/09/29 05:16:19;;;;;;;3.53;1.90;;;;;;;;;;4991446;28;20459;-74
2022/09/29 05:18:46;;;;;;;2.60;2.30;;;;;;;;;;4987766;28;20811;-74
2022/09/29 05:21:14;;;;;;;2.10;1.80;;;;;;;;;;4972037;28;20499;-74
2022/09/29 05:23:42;;;;;;;2.47;1.40;;;;;;;;;;4990338;28;20466;-74
2022/09/29 05:26:10;;;;;;;3.53;1.57;;;;;;;;;;4991068;28;21081;-74
2022/09/29 05:28:38;;;;;;;2.57;1.77;;;;;;;;;;4977397;28;20471;-74
2022/09/29 05:31:06;;;;;;;2.67;1.70;;;;;;;;;;4994311;28;20457;-73
2022/09/29 05:33:33;;;;;;;6.00;1.97;;;;;;;;;;4983082;28;20456;-75
2022/09/29 05:36:00;;;;;;;1.90;1.50;;;;;;;;;;4993925;28;20460;-73
2022/09/29 05:38:27;;;;;;;2.80;1.80;;;;;;;;;;4995166;28;20446;-74
2022/09/29 05:40:56;;;;;;;3.03;2.40;;;;;;;;;;4993917;28;20540;-73
2022/09/29 05:43:24;;;;;;;3.50;1.70;;;;;;;;;;4994466;28;20997;-74
2022/09/29 05:45:51;;;;;;;2.30;1.67;;;;;;;;;;4993697;28;20451;-73
2022/09/29 05:48:18;;;;;;;3.23;1.60;;;;;;;;;;4994597;28;20935;-73
2022/09/29 05:50:45;;;;;;;2.07;1.70;;;;;;;;;;4990071;28;20467;-74
2022/09/29 05:53:12;;;;;;;3.80;1.93;;;;;;;;;;4994997;28;20497;-74
2022/09/29 05:55:40;;;;;;;3.40;2.03;;;;;;;;;;4994116;28;20452;-75
2022/09/29 05:58:08;;;;;;;3.17;2.00;;;;;;;;;;4993980;28;20443;-74
2022/09/29 06:00:35;;;;;;;3.10;2.03;;;;;;;;;;4981469;28;20859;-72
2022/09/29 06:03:03;;;;;;;4.50;2.43;;;;;;;;;;4993829;28;20459;-72
2022/09/29 06:05:30;;;;;;;2.33;1.77;;;;;;;;;;4993847;28;20784;-73
2022/09/29 06:07:57;;;;;;;3.70;2.10;;;;;;;;;;4993551;28;20454;-72
2022/09/29 06:10:25;;;;;;;7.93;2.13;;;;;;;;;;4993909;28;20812;-74
2022/09/29 06:12:52;;;;;;;1.73;1.63;;;;;;;;;;4993477;28;20803;-74
2022/09/29 06:15:20;;;;;;;3.20;2.43;;;;;;;;;;4990912;28;20459;-75
2022/09/29 06:17:47;;;;;;;3.63;2.13;;;;;;;;;;4983911;28;20928;-74
2022/09/29 06:20:14;;;;;;;2.90;2.00;;;;;;;;;;4982159;28;20478;-75
2022/09/29 06:22:42;;;;;;;2.43;2.00;;;;;;;;;;4993727;28;20982;-74
2022/09/29 06:25:09;;;;;;;2.83;1.90;;;;;;;;;;4992521;28;20467;-74
2022/09/29 06:27:36;;;;;;;1.93;1.73;;;;;;;;;;4984819;28;20464;-74
2022/09/29 06:30:03;;;;;;;3.30;1.87;;;;;;;;;;4990827;28;20452;-74
2022/09/29 06:32:33;;;;;;;3.53;1.90;;;;;;;;;;4993905;28;20461;-74
2022/09/29 06:37:46;;;;;;;2.37;1.93;;;;;;;;;;4993560;28;20432;-73
2022/09/29 06:40:13;;;;;;;4.60;2.43;;;;;;;;;;4992992;28;20453;-73
2022/09/29 06:42:40;;;;;;;4.20;2.70;;;;;;;;;;4993211;28;20500;-72
2022/09/29 06:45:09;;;;;;;2.87;2.60;;;;;;;;;;4992501;28;20542;-73
2022/09/29 06:47:38;;;;;;;3.13;2.00;;;;;;;;;;4991030;28;20452;-74
2022/09/29 06:50:05;;;;;;;9.07;3.37;;;;;;;;;;4982325;28;20457;-72
2022/09/29 06:52:32;;;;;;;7.00;2.43;;;;;;;;;;4993390;28;20471;-73
2022/09/29 06:55:00;;;;;;;3.50;2.53;;;;;;;;;;4992553;28;20460;-73
2022/09/29 06:57:27;;;;;;;3.53;2.17;;;;;;;;;;4992992;28;20806;-73
2022/09/29 06:59:54;;;;;;;3.03;2.07;;;;;;;;;;4992674;28;20449;-73
2022/09/29 07:02:21;;;;;;;2.47;2.10;;;;;;;;;;4993490;28;20488;-73
2022/09/29 07:04:49;;;;;;;2.80;2.10;;;;;;;;;;4993278;28;20461;-73
2022/09/29 07:07:17;;;;;;;6.00;2.90;;;;;;;;;;4980379;28;20452;-73
2022/09/29 07:09:44;;;;;;;3.40;2.00;;;;;;;;;;4993443;28;20445;-74
2022/09/29 07:12:12;;;;;;;2.87;2.40;;;;;;;;;;4993584;28;20457;-73
2022/09/29 07:14:39;;;;;;;4.00;2.50;;;;;;;;;;4993954;28;20480;-74
2022/09/29 07:17:08;;;;;;;3.80;2.70;;;;;;;;;;4992339;28;20464;-73
2022/09/29 07:19:35;;;;;;;3.83;2.70;;;;;;;;;;4983627;28;20902;-73
2022/09/29 07:22:04;;;;;;;4.20;2.80;;;;;;;;;;4978729;28;20469;-73
2022/09/29 07:24:31;;;;;;;8.27;3.30;;;;;;;;;;4995757;28;20446;-73
2022/09/29 07:26:59;;;;;;;4.93;2.50;;;;;;;;;;4986291;28;20454;-73
2022/09/29 07:29:26;;;;;;;9.50;2.23;;;;;;;;;;4986173;28;20463;-73
2022/09/29 07:31:54;;;;;;;2.87;2.53;;;;;;;;;;4986141;28;20807;-73
2022/09/29 07:34:21;;;;;;;2.73;2.37;;;;;;;;;;4985725;28;20813;-73
2022/09/29 07:36:48;;;;;;;3.90;2.67;;;;;;;;;;4991354;28;20451;-73
2022/09/29 07:39:17;;;;;;;3.00;2.47;;;;;;;;;;4992775;28;20458;-73
2022/09/29 07:41:44;;;;;;;4.57;2.80;;;;;;;;;;4992303;28;20486;-73
2022/09/29 07:44:11;;;;;;;2.93;2.10;;;;;;;;;;4992275;28;20457;-73
2022/09/29 07:46:38;;;;;;;3.90;2.77;;;;;;;;;;4991562;28;20833;-74
2022/09/29 07:49:05;;;;;;;4.30;2.57;;;;;;;;;;4986699;28;20451;-74
2022/09/29 07:51:32;;;;;;;4.03;2.70;;;;;;;;;;4991507;28;20458;-73
2022/09/29 07:54:02;;;;;;;4.57;3.07;;;;;;;;;;4991461;28;20801;-73
2022/09/29 07:56:31;;;;;;;4.03;2.50;;;;;;;;;;4991896;28;20451;-73
2022/09/29 07:58:59;;;;;;;4.40;2.40;;;;;;;;;;4991482;28;20456;-73
2022/09/29 08:01:26;;;;;;;3.20;2.50;;;;;;;;;;4992455;28;20485;-74
2022/09/29 08:03:54;;;;;;;3.83;3.23;;;;;;;;;;4991392;28;20821;-73
2022/09/29 08:06:21;;;;;;;4.60;3.10;;;;;;;;;;4991505;28;20532;-73
2022/09/29 08:08:49;;;;;;;3.07;2.67;;;;;;;;;;4991461;28;20460;-73
2022/09/29 08:11:19;;;;;;;3.87;3.10;;;;;;;;;;4991692;28;20461;-74
2022/09/29 08:13:47;;;;;;;3.40;3.10;;;;;;;;;;4991913;28;20808;-73
2022/09/29 08:16:15;;;;;;;3.17;2.87;;;;;;;;;;4992135;28;20449;-74
2022/09/29 08:18:42;;;;;;;4.03;2.27;;;;;;;;;;4989375;28;20851;-74
2022/09/29 08:21:11;;;;;;;2.60;1.70;;;;;;;;;;4971450;28;21268;-74
2022/09/29 08:23:39;;;;;;;4.93;2.70;;;;;;;;;;4990477;28;20454;-74
2022/09/29 08:26:07;;;;;;;2.80;2.00;;;;;;;;;;4990614;28;20442;-73
2022/09/29 08:28:35;;;;;;;5.53;2.80;;;;;;;;;;4980446;28;20461;-73
2022/09/29 08:31:04;;;;;;;2.97;1.50;;;;;;;;;;4991264;28;20468;-73
2022/09/29 08:33:31;;;;;;;3.10;2.80;;;;;;;;;;4991756;28;20446;-73
2022/09/29 08:35:59;;;;;;;5.93;2.60;;;;;;;;;;4990837;28;20813;-73
2022/09/29 08:38:26;;;;;;;3.10;2.07;;;;;;;;;;4991541;28;20793;-73
2022/09/29 08:40:55;;;;;;;3.17;2.30;;;;;;;;;;4990870;28;20872;-73
2022/09/29 08:43:25;;;;;;;3.83;2.33;;;;;;;;;;4991599;28;20547;-73
2022/09/29 08:45:57;;;;;;;3.70;2.27;;;;;;;;;;4990579;28;20524;-73
2022/09/29 08:48:27;;;;;;;6.90;2.70;;;;;;;;;;4991660;28;20453;-74
2022/09/29 08:50:56;;;;;;;2.60;1.90;;;;;;;;;;4986180;28;20465;-73
2022/09/29 08:53:25;;;;;;;4.60;2.30;;;;;;;;;;4991798;28;20457;-73
2022/09/29 08:55:55;;;;;;;3.17;2.17;;;9.80;99.90;;;;;;4990732;28;20449;-74
2022/09/29 08:58:22;;;;;;;2.60;2.03;;;12.30;1.00;;;;;;4991955;28;20459;-73
2022/09/29 09:00:59;;;;;;;4.67;2.57;;;12.20;1.00;;;;;;4991482;28;20457;-73
2022/09/29 09:03:48;;;;;;;2.13;1.70;;;12.40;1.00;;;;;;4994682;28;20473;-73
2022/09/29 09:06:24;;;;;;;3.63;1.80;;;12.70;99.90;;;;;;4972704;28;20457;-74
2022/09/29 09:09:14;;;;;;;4.00;2.17;;;12.70;1.00;;;;;;4995350;28;20449;-73
2022/09/29 09:12:00;;;;;;;4.67;2.50;;;12.60;93.90;;;;;;4995791;28;20456;-74
2022/09/29 09:14:52;;;;;;;1.63;1.53;;;12.60;99.90;;;;;;4975128;28;20449;-74
2022/09/29 09:17:30;;;;;;;3.03;1.87;;;12.60;1.00;;;;;;4993400;28;20876;-74
2022/09/29 09:20:26;;;;;;;3.53;2.03;;;12.50;99.90;;;;;;4982383;28;20891;-75
2022/09/29 09:22:57;;;;;;;3.27;1.50;;;12.60;23.20;;;;;;4985137;28;20508;-74
2022/09/29 09:25:29;;;;;;;2.93;1.43;;;12.80;78.40;;;;;;4994880;28;20797;-74
2022/09/29 09:28:05;;;;;;;3.90;2.20;;;13.10;1.00;;;;;;4983730;28;20465;-73
2022/09/29 09:30:39;;;;;;;3.83;1.87;;;13.10;99.90;;;;;;4995452;28;20444;-74
2022/09/29 09:33:15;;;;;;;3.30;1.93;;;13.00;99.90;;;;;;4994622;28;20460;-73
2022/09/29 09:35:48;;;;;;;2.50;1.70;;;13.00;68.30;;;;;;4995022;28;20801;-73
2022/09/29 09:38:19;;;;;;;2.97;1.93;;;13.20;99.90;;;;;;4994678;28;20447;-73
2022/09/29 09:40:48;;;;;;;2.23;1.90;;;13.10;1.00;;;;;;4994710;28;20449;-73
2022/09/29 09:43:19;;;;;;;1.93;1.47;;;13.20;1.00;;;;;;4994622;28;21030;-73
2022/09/29 09:45:53;;;;;;;1.63;1.23;;;13.20;1.00;;;;;;4994176;28;20444;-72
2022/09/29 09:48:25;;;;;;;2.20;1.30;;;13.30;1.00;;;;;;4994915;28;20529;-73
2022/09/29 09:50:53;;;;;;;2.67;1.47;;;13.30;99.90;;;;;;4985905;28;20463;-74
2022/09/29 09:53:27;;;;;;;1.33;1.23;;;13.20;1.00;;;;;;4994547;28;21009;-73
2022/09/29 09:56:05;;;;;;;1.40;1.27;;;13.20;1.00;;;;;;4993530;28;20449;-73
2022/09/29 09:59:11;;;;;;;1.40;1.30;;;13.20;1.00;;;;;;4994825;28;20446;-74
2022/09/29 10:01:38;;;;;;;3.67;1.77;;;13.40;1.00;;;;;;4972937;28;20472;-74
2022/09/29 10:04:05;;;;;;;1.90;1.33;;;13.80;1.00;;;;;;4993747;28;20445;-73
2022/09/29 10:06:34;;;;;;;1.63;1.23;;;13.80;1.00;;;;;;4994305;28;20540;-73
2022/09/29 10:09:00;;;;;;;3.97;1.30;;;13.60;1.00;;;;;;4993420;28;20460;-73
2022/09/29 10:11:30;;;;;;;1.77;1.60;;;13.80;1.00;;;;;;4994107;28;20477;-73
2022/09/29 10:14:01;;;;;;;2.53;1.37;;;13.70;1.00;;;;;;4992225;28;20511;-72
2022/09/29 10:16:35;;;;;;;2.63;1.60;;;13.90;1.00;;;;;;4993710;28;20437;-73
2022/09/29 10:19:02;;;;;;;1.90;1.20;;;13.70;1.00;;;;;;4988041;28;20446;-74
2022/09/29 10:21:41;;;;;;;1.87;1.10;;;14.10;99.90;;;;;;4975281;28;20485;-73
2022/09/29 10:24:22;;;;;;;1.60;1.47;;;14.00;99.90;;;;;;4993515;28;20468;-73
2022/09/29 10:26:52;;;;;;;1.30;1.13;;;13.90;99.90;;;;;;4990331;28;20465;-73
2022/09/29 10:29:26;;;;;;;2.90;1.43;;;14.00;1.00;;;;;;4986534;28;20457;-73
2022/09/29 10:32:02;;;;;;;2.13;1.50;;;14.20;1.00;;;;;;4993193;28;20453;-72
2022/09/29 10:34:30;;;;;;;2.90;1.73;;;14.30;1.00;;;;;;4993951;28;20444;-73
2022/09/29 10:37:01;;;;;;;1.63;1.03;;;14.10;99.90;;;;;;4992759;28;20457;-73
2022/09/29 10:39:34;;;;;;;1.10;1.00;;;14.00;99.90;;;;;;4993963;28;20446;-74
2022/09/29 10:42:03;;;;;;;2.17;1.67;;;;;;;;;;4992520;28;20456;-73
2022/09/29 10:44:32;;;;;;;2.60;1.43;;;;;;;;;;4993505;28;20446;-73
2022/09/29 10:47:00;;;;;;;1.70;1.40;;;;;;;;;;4992780;28;20798;-74
2022/09/29 10:49:28;;;;;;;4.00;1.00;;;;;;;;;;4988159;28;20484;-74
2022/09/29 10:51:58;;;;;;;1.70;1.07;;;;;;;;;;4992781;28;20453;-73
2022/09/29 10:54:27;;;;;;;1.40;0.90;;;;;;;;;;4993339;28;20462;-74
2022/09/29 10:56:55;;;;;;;1.87;1.30;;;;;;;;;;4992355;28;20461;-73
2022/09/29 10:59:23;;;;;;;1.27;0.90;;;;;;;;;;4993115;28;20457;-74
2022/09/29 11:01:51;;;;;;;2.57;0.77;;;;;;;;;;4992619;28;20449;-73
2022/09/29 11:04:20;;;;;;;3.13;1.10;;;;;;;;;;4993567;28;20778;-73
2022/09/29 11:06:47;;;;;;;1.60;1.23;;;;;;;;;;4980624;28;20465;-73
2022/09/29 11:09:29;;;;;;;1.57;1.03;;;;;;;;;;4979128;28;20490;-74
2022/09/29 11:11:57;;;;;;;2.33;0.97;;;;;;;;;;4992546;28;20849;-74
2022/09/29 11:14:26;;;;;;;1.77;1.23;;;;;;;;;;4995095;28;20471;-75
2022/09/29 11:16:54;;;;;;;1.50;1.23;;;;;;;;;;4994003;28;20806;-73
2022/09/29 11:19:22;;;;;;;1.20;0.80;;;;;;;;;;4984973;28;20470;-73
2022/09/29 11:22:07;;;;;;;2.30;1.33;;;;;;;;;;4978820;28;20456;-74
2022/09/29 11:24:53;;;;;;;1.10;0.80;;;;;;;;;;4995455;28;20464;-74
2022/09/29 11:27:28;;;;;;;2.90;1.47;;;;;;;;;;4987575;28;20457;-74
2022/09/29 11:30:01;;;;;;;1.27;0.97;;;;;;;;;;4988908;28;20456;-74
2022/09/29 11:32:36;;;;;;;1.60;1.23;;;;;;;;;;4993067;28;20457;-74
2022/09/29 11:35:18;;;;;;;1.13;0.80;;;;;;;;;;4991920;28;20456;-74
2022/09/29 11:38:01;;;;;;;1.93;1.00;;;;;;;;;;4992211;28;20453;-73
2022/09/29 11:40:37;;;;;;;5.00;1.30;;;;;;;;;;4992622;28;20460;-74
2022/09/29 11:43:11;;;;;;;3.73;1.40;;;;;;;;;;4992215;28;21108;-74
2022/09/29 11:45:43;;;;;;;2.50;1.20;;;;;;;;;;4992288;28;20465;-74
2022/09/29 11:48:27;;;;;;;1.93;1.50;;;;;;;;;;4992258;28;21148;-74
2022/09/29 11:50:58;;;;;;;2.33;1.33;;;;;;;;;;4981850;28;20619;-74
2022/09/29 11:53:30;;;;;;;2.13;1.40;;;;;;;;;;4992019;28;20445;-74
2022/09/29 11:56:05;;;;;;;1.60;1.00;;;;;;;;;;4990916;28;20463;-73
2022/09/29 11:58:39;;;;;;;1.83;0.90;;;;;;;;;;4992230;28;20451;-73
2022/09/29 12:01:13;;;;;;;1.80;1.10;;;;;;;;;;4991648;28;20544;-74
2022/09/29 12:03:45;;;;;;;1.73;1.20;;;;;;;;;;4992067;28;20814;-74
2022/09/29 12:06:28;;;;;;;1.93;1.47;;;;;;;;;;4967761;28;20536;-74
2022/09/29 12:09:02;;;;;;;1.17;0.90;;;;;;;;;;4991496;28;20451;-74
2022/09/29 12:11:37;;;;;;;2.93;1.60;;;;;;;;;;4992019;28;20460;-73
2022/09/29 12:14:10;;;;;;;2.43;1.07;;;;;;;;;;4991411;28;20459;-73
2022/09/29 12:16:39;;;;;;;2.60;0.90;;;;;;;;;;4991639;28;20507;-73
2022/09/29 12:19:10;;;;;;;0.80;0.80;;;;;;;;;;4959281;28;20457;-73
2022/09/29 12:21:39;;;;;;;1.90;0.80;;;;;;;;;;4974224;28;20446;-74
2022/09/29 12:24:08;;;;;;;1.73;0.90;;;;;;;;;;4991097;28;20568;-74
2022/09/29 12:26:37;;;;;;;1.33;1.23;;;;;;;;;;4990681;28;20516;-73
2022/09/29 12:29:07;;;;;;;2.20;1.33;;;;;;;;;;4981546;28;20560;-74
2022/09/29 12:31:35;;;;;;;1.33;0.97;;;;;;;;;;4991738;28;20454;-73
2022/09/29 12:34:05;;;;;;;2.83;1.43;;;;;;;;;;4990800;28;20488;-74
2022/09/29 12:36:44;;;;;;;2.50;0.97;;;;;;;;;;4991311;28;20528;-74
2022/09/29 12:39:33;;;;;;;1.23;0.90;;;;;;;;;;4991076;28;20934;-75
2022/09/29 12:42:04;;;;;;;1.43;1.13;;;;;;;;;;4986385;28;20461;-73
2022/09/29 12:44:33;;;;;;;2.70;1.10;;;;;;;;;;4987867;28;20474;-73
2022/09/29 12:47:05;;;;;;;2.83;0.97;;;;;;;;;;4981000;28;20461;-76
2022/09/29 12:49:37;;;;;;;1.00;0.80;;;;;;;;;;4986743;28;20548;-73
2022/09/29 12:52:06;;;;;;;0.90;0.70;;;;;;;;;;4990754;28;21250;-74
2022/09/29 12:54:35;;;;;;;1.10;0.80;;;;;;;;;;4991188;28;20460;-75
2022/09/29 12:57:05;;;;;;;1.80;0.97;;;;;;;;;;4990605;28;20461;-73
2022/09/29 12:59:36;;;;;;;1.73;1.37;;;;;;;;;;4991772;28;20446;-75
2022/09/29 13:02:06;;;;;;;4.87;1.33;;;;;;;;;;4990896;28;20448;-76
2022/09/29 13:05:00;;;;;;;1.03;0.80;;;;;;;;;;4991285;28;20489;-75
2022/09/29 13:07:51;;;;;;;1.13;0.97;;;;;;;;;;4956838;28;20570;-76
2022/09/29 13:10:28;;;;;;;1.20;0.93;;;;;;;;;;4976841;28;20909;-73
2022/09/29 13:13:08;;;;;;;3.00;1.00;;;;;;;;;;4991076;28;20449;-74
2022/09/29 13:15:47;;;;;;;1.67;1.10;;;;;;;;;;4991470;28;20468;-75
2022/09/29 13:18:23;;;;;;;1.47;1.30;;;;;;;;;;4991433;28;20483;-74
2022/09/29 13:21:05;;;;;;;1.67;0.90;;;;;;;;;;4961051;28;20560;-73
2022/09/29 13:23:39;;;;;;;1.20;0.63;;;;;;;;;;4986655;28;20492;-74
2022/09/29 13:26:39;;;;;;;1.70;0.87;;;14.30;1.00;;;;;;4990288;28;20968;-74
2022/09/29 13:29:13;;;;;;;2.23;0.77;;;14.50;99.90;;;;;;4971265;28;20457;-74
2022/09/29 13:31:41;;;;;;;1.93;0.80;;;14.50;99.90;;;;;;4991442;28;20449;-74
2022/09/29 13:34:19;;;;;;;1.20;1.10;;;14.50;99.90;;;;;;4990817;28;20496;-74
2022/09/29 13:36:47;;;;;;;2.80;1.00;;;14.50;99.90;;;;;;4990871;28;20791;-74
2022/09/29 13:39:22;;;;;;;1.83;1.07;;;14.50;99.90;;;;;;4991707;28;20465;-74
2022/09/29 13:41:49;;;;;;;1.00;0.90;;;14.70;99.90;;;;;;4991093;28;20927;-75
2022/09/29 13:44:26;;;;;;;2.00;1.20;;;14.50;99.90;;;;;;4991396;28;20493;-74
2022/09/29 13:46:54;;;;;;;1.57;1.00;;;14.50;99.90;;;;;;4991209;28;20524;-75
2022/09/29 13:49:30;;;;;;;3.80;1.70;;;14.60;99.90;;;;;;4986915;28;20838;-74
2022/09/29 13:51:59;;;;;;;1.93;1.33;;;14.70;99.90;;;;;;4994629;28;20448;-74
2022/09/29 13:54:40;;;;;;;5.77;3.40;;;14.60;99.90;;;;;;4994648;28;20457;-73
2022/09/29 13:57:28;;;;;;;4.50;3.93;;;14.70;99.90;;;;;;4993175;28;21045;-73
2022/09/29 14:00:24;;;;;;;3.70;2.10;;;14.70;99.90;;;;;;4984091;28;20964;-73
2022/09/29 14:03:25;;;;;;;3.53;1.87;;;14.90;99.90;;;;;;4980658;28;20464;-73
2022/09/29 14:06:16;;;;;;;3.43;1.17;;;14.60;99.90;;;;;;4993359;28;20453;-73
2022/09/29 14:08:48;;;;;;;1.83;1.23;;;14.60;99.90;;;;;;4994621;28;20444;-75
2022/09/29 14:11:21;;;;;;;1.33;1.13;;;14.50;99.90;;;;;;4994519;28;20463;-76
2022/09/29 14:13:54;;;;;;;1.50;1.10;;;14.70;99.90;;;;;;4993349;28;20480;-73
2022/09/29 14:16:31;;;;;;;1.00;0.80;;;14.50;99.90;;;;;;4993663;28;20449;-75
2022/09/29 14:19:06;;;;;;;2.40;1.70;;;14.60;99.90;;;;;;4988441;28;20446;-75
2022/09/29 14:21:49;;;;;;;3.80;1.47;;;14.50;99.90;;;;;;4976256;28;20984;-75
2022/09/29 14:24:42;;;;;;;4.50;1.30;;;14.40;99.90;;;;;;4994329;28;20484;-75
2022/09/29 14:27:28;;;;;;;4.07;1.30;;;14.50;99.90;;;;;;4987989;28;20541;-75
2022/09/29 14:30:01;;;;;;;1.50;1.40;;;14.60;99.90;;;;;;4990340;28;20524;-74
2022/09/29 14:32:41;;;;;;;2.20;1.57;;;14.60;99.90;;;;;;4993841;28;20445;-75
2022/09/29 14:35:20;;;;;;;1.30;1.13;;;14.60;99.90;;;;;;4979884;28;20679;-74
2022/09/29 14:37:52;;;;;;;3.67;1.53;;;14.60;99.90;;;;;;4993709;28;20496;-73
2022/09/29 14:40:28;;;;;;;4.77;1.57;;;14.70;99.90;;;;;;4994030;28;20450;-75
2022/09/29 14:43:13;;;;;;;2.13;0.90;;;14.90;99.90;;;;;;4992866;28;20445;-75